Time;durP1;ratioP1;P1;durP2;ratioP2;P2;SDS_P1;SDS_P2;PMS_P1;PMS_P2;Temp;Humidity;BMP_temperature;BMP_pressure;BME280_temperature;BME280_humidity;BME280_pressure;Samples;Min_cycle;Max_cycle;Signal;HPM_P1;HPM_P2
2022/08/31 00:03:59;;;;;;;0.28;0.20;;;;;;;;;;5075210;28;20044;-52
2022/08/31 00:06:25;;;;;;;0.75;0.20;;;;;;;;;;5075010;28;20087;-55
2022/08/31 00:08:51;;;;;;;1.30;0.30;;;;;;;;;;5075313;28;20491;-55
2022/08/31 00:11:26;;;;;;;0.80;0.20;;;;;;;;;;5070518;28;20037;-55
2022/08/31 00:13:52;;;;;;;0.43;0.20;;;;;;;;;;5076220;28;20052;-54
2022/08/31 00:16:18;;;;;;;0.30;0.20;;;;;;;;;;5076346;28;20040;-55
2022/08/31 00:18:45;;;;;;;1.00;0.20;;;;;;;;;;5077190;28;20044;-56
2022/08/31 00:21:11;;;;;;;0.40;0.25;;;;;;;;;;5074389;28;20070;-54
2022/08/31 00:23:38;;;;;;;0.10;0.10;;;;;;;;;;5076447;28;20044;-55
2022/08/31 00:26:04;;;;;;;0.10;0.10;;;;;;;;;;5074714;28;20628;-56
2022/08/31 00:28:31;;;;;;;0.40;0.30;;;;;;;;;;5078298;28;20516;-53
2022/08/31 00:30:57;;;;;;;0.35;0.20;;;;;;;;;;5073641;28;20070;-54
2022/08/31 00:33:23;;;;;;;0.15;0.15;;;;;;;;;;5071739;28;20165;-56
2022/08/31 00:35:49;;;;;;;0.13;0.13;;;;;;;;;;5074060;28;20658;-56
2022/08/31 00:38:15;;;;;;;0.40;0.20;;;;;;;;;;5076532;28;20056;-58
2022/08/31 00:40:42;;;;;;;0.75;0.10;;;;;;;;;;5075273;28;20036;-57
2022/08/31 00:43:08;;;;;;;0.40;0.10;;;;;;;;;;5073966;28;20180;-56
2022/08/31 00:45:34;;;;;;;0.73;0.30;;;;;;;;;;5076412;28;20048;-56
2022/08/31 00:48:00;;;;;;;0.20;0.20;;;;;;;;;;5076766;28;20186;-56
2022/08/31 00:50:27;;;;;;;0.20;0.20;;;;;;;;;;5072761;28;20511;-56
2022/08/31 00:52:55;;;;;;;0.10;0.10;;;;;;;;;;5072918;28;20056;-53
2022/08/31 00:55:24;;;;;;;0.10;0.10;;;;;;;;;;5070117;28;20442;-55
2022/08/31 00:57:52;;;;;;;0.35;0.20;;;;;;;;;;5041140;28;20055;-56
2022/08/31 01:00:22;;;;;;;0.20;0.20;;;;;;;;;;5076013;28;20036;-59
2022/08/31 01:02:48;;;;;;;0.17;0.17;;;;;;;;;;5075024;28;20047;-53
2022/08/31 01:05:15;;;;;;;0.98;0.30;;;;;;;;;;5074231;28;20051;-53
2022/08/31 01:07:42;;;;;;;0.15;0.15;;;;;;;;;;5074619;28;20511;-52
2022/08/31 01:10:08;;;;;;;0.20;0.20;;;;;;;;;;5078706;28;20044;-53
2022/08/31 01:12:34;;;;;;;0.10;0.10;;;;;;;;;;5077201;28;20560;-56
2022/08/31 01:15:02;;;;;;;0.10;0.10;;;;;;;;;;5077192;28;20044;-52
2022/08/31 01:17:28;;;;;;;0.10;0.10;;;;;;;;;;5083699;28;20059;-54
2022/08/31 01:20:01;;;;;;;0.10;0.10;;;;;;;;;;5077047;28;20106;-54
2022/08/31 01:22:46;;;;;;;0.10;0.10;;;;;;;;;;5075440;28;20499;-54
2022/08/31 01:25:13;;;;;;;0.30;0.10;;;;;;;;;;5081773;28;20046;-53
2022/08/31 01:27:39;;;;;;;0.25;0.25;;;;;;;;;;5078403;28;20037;-53
2022/08/31 01:30:08;;;;;;;0.30;0.22;;;;;;;;;;5077543;28;20047;-54
2022/08/31 01:32:34;;;;;;;0.22;0.10;;;;;;;;;;5079127;28;20071;-55
2022/08/31 01:35:00;;;;;;;0.30;0.20;;;;;;;;;;5081377;28;20491;-54
2022/08/31 01:37:26;;;;;;;0.10;0.10;;;;;;;;;;5083174;28;20053;-55
2022/08/31 01:39:52;;;;;;;0.10;0.10;;;;;;;;;;5077102;28;20692;-51
2022/08/31 01:42:18;;;;;;;0.10;0.10;;;;;;;;;;5074724;28;20488;-59
2022/08/31 01:44:44;;;;;;;0.00;0.00;;;;;;;;;;5078205;28;20044;-55
2022/08/31 01:47:11;;;;;;;0.30;0.10;;;;;;;;;;5076838;28;20071;-56
2022/08/31 01:49:37;;;;;;;0.00;0.00;;;;;;;;;;5059181;28;20047;-53
2022/08/31 01:52:03;;;;;;;0.20;0.10;;;;;;;;;;5077469;28;20048;-59
2022/08/31 01:54:29;;;;;;;0.00;0.00;;;;;;;;;;5075974;28;20052;-53
2022/08/31 01:56:57;;;;;;;0.05;0.05;;;;;;;;;;5076760;28;20501;-53
2022/08/31 01:59:23;;;;;;;0.00;0.00;;;;;;;;;;5079611;28;20051;-53
2022/08/31 02:01:51;;;;;;;0.10;0.10;;;;;;;;;;5075504;28;20414;-54
2022/08/31 02:04:19;;;;;;;0.10;0.00;;;;;;;;;;5080878;28;20052;-56
2022/08/31 02:06:47;;;;;;;0.93;0.08;;;;;;;;;;5078277;28;20646;-59
2022/08/31 02:09:13;;;;;;;0.10;0.10;;;;;;;;;;5081969;28;20036;-55
2022/08/31 02:11:39;;;;;;;0.10;0.10;;;;;;;;;;5079950;28;20048;-55
2022/08/31 02:14:05;;;;;;;0.10;0.10;;;;;;;;;;5080125;28;20075;-57
2022/08/31 02:16:32;;;;;;;0.17;0.10;;;;;;;;;;5079422;28;20047;-57
2022/08/31 02:18:58;;;;;;;0.00;0.00;;;;;;;;;;5081623;28;20089;-52
2022/08/31 02:21:24;;;;;;;0.03;0.03;;;;;;;;;;5074746;28;20064;-56
2022/08/31 02:23:50;;;;;;;0.00;0.00;;;;;;;;;;5074735;28;20632;-54
2022/08/31 02:26:16;;;;;;;0.08;0.08;;;;;;;;;;5077129;28;20036;-54
2022/08/31 02:28:42;;;;;;;0.22;0.10;;;;;;;;;;5075432;28;20044;-53
2022/08/31 02:31:08;;;;;;;0.20;0.10;;;;;;;;;;5073248;28;20050;-51
2022/08/31 02:33:34;;;;;;;0.10;0.10;;;;;;;;;;5077484;28;20048;-54
2022/08/31 02:36:00;;;;;;;0.00;0.00;;;;;;;;;;5074721;28;20428;-54
2022/08/31 02:38:26;;;;;;;0.10;0.10;;;;;;;;;;5075282;28;20414;-54
2022/08/31 02:40:52;;;;;;;0.00;0.00;;;;;;;;;;5081129;28;20040;-51
2022/08/31 02:43:19;;;;;;;0.10;0.10;;;;;;;;;;5083894;28;20115;-57
2022/08/31 02:45:45;;;;;;;0.10;0.10;;;;;;;;;;5079365;28;21042;-58
2022/08/31 02:48:11;;;;;;;0.10;0.10;;;;;;;;;;5073575;28;20043;-54
2022/08/31 02:50:38;;;;;;;0.20;0.10;;;;;;;;;;5074840;28;20040;-53
2022/08/31 02:53:04;;;;;;;0.10;0.10;;;;;;;;;;5054458;28;20048;-55
2022/08/31 02:55:30;;;;;;;0.08;0.08;;;;;;;;;;5076713;28;20048;-53
2022/08/31 02:57:56;;;;;;;0.00;0.00;;;;;;;;;;5076662;28;20094;-53
2022/08/31 03:00:23;;;;;;;0.00;0.00;;;;;;;;;;5080466;28;20078;-54
2022/08/31 03:02:49;;;;;;;0.00;0.00;;;;;;;;;;5074356;28;20119;-55
2022/08/31 03:05:16;;;;;;;0.05;0.05;;;;;;;;;;5061077;28;20052;-56
2022/08/31 03:07:42;;;;;;;0.57;0.10;;;;;;;;;;5072974;28;20044;-52
2022/08/31 03:10:09;;;;;;;1.50;0.10;;;;;;;;;;5079218;28;20490;-55
2022/08/31 03:12:35;;;;;;;0.10;0.10;;;;;;;;;;5074343;28;20059;-54
2022/08/31 03:15:02;;;;;;;0.08;0.08;;;;;;;;;;5082578;28;20086;-56
2022/08/31 03:17:28;;;;;;;0.03;0.03;;;;;;;;;;5077155;28;20044;-53
2022/08/31 03:19:59;;;;;;;0.20;0.08;;;;;;;;;;5073149;28;20471;-53
2022/08/31 03:22:26;;;;;;;0.10;0.10;;;;;;;;;;5082182;28;20087;-57
2022/08/31 03:24:52;;;;;;;0.00;0.00;;;;;;;;;;5071128;28;20127;-54
2022/08/31 03:27:18;;;;;;;0.22;0.13;;;;;;;;;;5077020;28;20507;-53
2022/08/31 03:29:44;;;;;;;0.10;0.10;;;;;;;;;;5074339;28;20045;-56
2022/08/31 03:32:10;;;;;;;0.03;0.03;;;;;;;;;;5079918;28;20119;-54
2022/08/31 03:34:36;;;;;;;0.15;0.00;;;;;;;;;;5074517;28;20053;-54
2022/08/31 03:37:02;;;;;;;0.00;0.00;;;;;;;;;;5081473;28;20086;-53
2022/08/31 03:39:28;;;;;;;0.00;0.00;;;;;;;;;;5076717;28;20411;-53
2022/08/31 03:41:54;;;;;;;0.10;0.10;;;;;;;;;;5077621;28;20036;-55
2022/08/31 03:44:22;;;;;;;0.10;0.10;;;;;;;;;;5081924;28;20052;-56
2022/08/31 03:46:49;;;;;;;0.10;0.10;;;;;;;;;;5080996;28;20047;-53
2022/08/31 03:49:17;;;;;;;0.60;0.10;;;;;;;;;;5077942;28;20089;-55
2022/08/31 03:51:43;;;;;;;0.20;0.10;;;;;;;;;;5079812;28;20052;-53
2022/08/31 03:54:09;;;;;;;0.20;0.20;;;;;;;;;;5079782;28;20056;-56
2022/08/31 03:56:35;;;;;;;0.52;0.10;;;;;;;;;;5077362;28;20055;-55
2022/08/31 03:59:01;;;;;;;0.13;0.10;;;;;;;;;;5081448;28;20118;-54
2022/08/31 04:01:27;;;;;;;0.20;0.20;;;;;;;;;;5070595;28;20067;-55
2022/08/31 04:03:53;;;;;;;0.20;0.20;;;;;;;;;;5078348;28;20040;-53
2022/08/31 04:06:19;;;;;;;0.30;0.22;;;;;;;;;;5078354;28;20050;-57
2022/08/31 04:08:45;;;;;;;0.57;0.30;;;;;;;;;;5079847;28;20084;-57
2022/08/31 04:11:12;;;;;;;0.47;0.20;;;;;;;;;;5076525;28;20076;-56
2022/08/31 04:13:39;;;;;;;0.20;0.20;;;;;;;;;;5080131;28;20248;-56
2022/08/31 04:16:11;;;;;;;0.10;0.10;;;;;;;;;;5078832;28;20084;-53
2022/08/31 04:18:38;;;;;;;0.10;0.10;;;;;;;;;;5076786;28;20554;-53
2022/08/31 04:21:04;;;;;;;0.10;0.10;;;;;;;;;;5070898;28;20131;-54
2022/08/31 04:23:31;;;;;;;0.25;0.20;;;;;;;;;;5079698;28;20040;-52
2022/08/31 04:25:57;;;;;;;0.20;0.20;;;;;;;;;;5076105;28;20044;-56
2022/08/31 04:28:24;;;;;;;0.05;0.05;;;;;;;;;;5077821;28;20122;-55
2022/08/31 04:30:50;;;;;;;0.10;0.10;;;;;;;;;;5078874;28;20352;-54
2022/08/31 04:33:16;;;;;;;0.20;0.20;;;;;;;;;;5081542;28;20051;-53
2022/08/31 04:35:43;;;;;;;0.20;0.20;;;;;;;;;;5076087;28;20076;-53
2022/08/31 04:38:09;;;;;;;0.15;0.10;;;;;;;;;;5074399;28;20074;-53
2022/08/31 04:40:42;;;;;;;0.40;0.10;;;;;;;;;;5076046;28;20109;-53
2022/08/31 04:43:09;;;;;;;0.15;0.10;;;;;;;;;;5073527;28;20361;-54
2022/08/31 04:45:39;;;;;;;0.10;0.10;;;;;;;;;;5074401;28;20047;-58
2022/08/31 04:48:05;;;;;;;0.20;0.10;;;;;;;;;;5073434;28;20044;-55
2022/08/31 04:50:31;;;;;;;0.20;0.17;;;;;;;;;;5073843;28;20106;-53
2022/08/31 04:52:57;;;;;;;0.20;0.10;;;;;;;;;;5081420;28;20135;-56
2022/08/31 04:55:23;;;;;;;0.30;0.15;;;;;;;;;;5070219;28;20128;-52
2022/08/31 04:57:49;;;;;;;0.20;0.20;;;;;;;;;;5086372;28;20044;-55
2022/08/31 05:00:15;;;;;;;0.17;0.17;;;;;;;;;;5088146;28;20509;-53
2022/08/31 05:02:41;;;;;;;0.20;0.10;;;;;;;;;;5088976;28;20074;-53
2022/08/31 05:05:07;;;;;;;0.20;0.20;;;;;;;;;;5088816;28;20460;-58
2022/08/31 05:07:34;;;;;;;0.35;0.22;;;;;;;;;;5089092;28;20048;-53
2022/08/31 05:10:00;;;;;;;0.30;0.20;;;;;;;;;;5088768;28;20604;-53
2022/08/31 05:12:26;;;;;;;0.20;0.20;;;;;;;;;;5070119;28;20045;-51
2022/08/31 05:14:52;;;;;;;0.10;0.10;;;;;;;;;;5088452;28;20081;-54
2022/08/31 05:17:18;;;;;;;0.40;0.40;;;;;;;;;;5081377;28;20040;-53
2022/08/31 05:19:44;;;;;;;0.05;0.05;;;;;;;;;;5068342;28;20048;-53
2022/08/31 05:22:10;;;;;;;0.15;0.15;;;;;;;;;;5071643;28;20044;-55
2022/08/31 05:24:37;;;;;;;0.10;0.00;;;;;;;;;;5075757;28;20555;-52
2022/08/31 05:27:03;;;;;;;0.40;0.20;;;;;;;;;;5074274;28;20136;-55
2022/08/31 05:29:29;;;;;;;0.30;0.20;;;;;;;;;;5079458;28;20098;-53
2022/08/31 05:31:55;;;;;;;0.15;0.15;;;;;;;;;;5088249;28;20495;-55
2022/08/31 05:34:22;;;;;;;0.10;0.10;;;;;;;;;;5088272;28;20047;-57
2022/08/31 05:36:52;;;;;;;0.20;0.20;;;;;;;;;;5088640;28;20040;-53
2022/08/31 05:39:18;;;;;;;0.60;0.20;;;;;;;;;;5089045;28;20073;-51
2022/08/31 05:41:46;;;;;;;0.47;0.20;;;;;;;;;;5079624;28;20055;-52
2022/08/31 05:44:12;;;;;;;0.40;0.20;;;;;;;;;;5073488;28;20052;-55
2022/08/31 05:46:38;;;;;;;0.45;0.30;;;;;;;;;;5068545;28;20392;-54
2022/08/31 05:49:05;;;;;;;0.20;0.20;;;;;;;;;;5079708;28;20506;-53
2022/08/31 05:51:31;;;;;;;0.40;0.20;;;;;;;;;;5079854;28;20411;-54
2022/08/31 05:54:00;;;;;;;0.20;0.20;;;;;;;;;;5081059;28;20044;-54
2022/08/31 05:56:27;;;;;;;0.73;0.20;;;;;;;;;;5079662;28;20055;-53
2022/08/31 05:58:53;;;;;;;0.20;0.20;;;;;;;;;;5079435;28;20115;-55
2022/08/31 06:01:21;;;;;;;0.30;0.30;;;;;;;;;;5076871;28;20495;-58
2022/08/31 06:03:47;;;;;;;0.20;0.20;;;;;;;;;;5079918;28;20048;-55
2022/08/31 06:06:14;;;;;;;1.58;0.20;;;;;;;;;;5084292;28;20372;-54
2022/08/31 06:08:40;;;;;;;0.20;0.20;;;;;;;;;;5086504;28;20425;-55
2022/08/31 06:11:11;;;;;;;0.68;0.32;;;;;;;;;;5077032;28;20055;-52
2022/08/31 06:13:37;;;;;;;0.70;0.30;;;;;;;;;;5067567;28;20178;-60
2022/08/31 06:16:03;;;;;;;0.47;0.25;;;;;;;;;;5066815;28;20898;-59
2022/08/31 06:18:29;;;;;;;0.17;0.10;;;;;;;;;;5076167;28;20542;-53
2022/08/31 06:21:07;;;;;;;0.30;0.25;;;;;;;;;;5087500;28;20103;-55
2022/08/31 06:23:34;;;;;;;0.43;0.40;;;;;;;;;;5080428;28;20051;-53
2022/08/31 06:26:01;;;;;;;0.22;0.20;;;;;;;;;;5078120;28;20403;-57
2022/08/31 06:28:31;;;;;;;0.30;0.28;;;;;;;;;;5087571;28;20044;-55
2022/08/31 06:30:58;;;;;;;0.68;0.47;;;;;;;;;;5086851;28;20048;-54
2022/08/31 06:33:24;;;;;;;0.20;0.20;;;;;;;;;;5087465;28;20054;-56
2022/08/31 06:35:50;;;;;;;0.40;0.35;;;;;;;;;;5087376;28;20059;-54
2022/08/31 06:38:16;;;;;;;0.22;0.22;;;;;;;;;;5086986;28;20096;-56
2022/08/31 06:40:42;;;;;;;0.38;0.38;;;;;;;;;;5087214;28;20036;-54
2022/08/31 06:43:08;;;;;;;0.60;0.35;;;;;;;;;;5086247;28;20101;-56
2022/08/31 06:45:34;;;;;;;0.20;0.17;;;;;;;;;;5085171;28;20395;-54
2022/08/31 06:48:02;;;;;;;0.57;0.32;;;;;;;;;;5066665;28;20059;-56
2022/08/31 06:50:28;;;;;;;0.20;0.20;;;;;;;;;;5071652;28;20036;-53
2022/08/31 06:52:54;;;;;;;0.50;0.45;;;;;;;;;;5065831;28;20140;-53
2022/08/31 06:55:20;;;;;;;0.95;0.40;;;;;;;;;;5066925;28;20067;-56
2022/08/31 06:57:46;;;;;;;0.85;0.30;;;;;;;;;;5066014;28;20101;-56
2022/08/31 07:00:13;;;;;;;0.20;0.20;;;;;;;;;;5082330;28;20047;-54
2022/08/31 07:02:38;;;;;;;0.50;0.20;;;;;;;;;;5078019;28;20375;-55
2022/08/31 07:05:05;;;;;;;0.30;0.20;;;;;;;;;;5082777;28;20885;-53
2022/08/31 07:07:31;;;;;;;0.20;0.20;;;;;;;;;;5083681;28;20059;-57
2022/08/31 07:09:57;;;;;;;1.38;0.10;;;;;;;;;;5085184;28;20043;-58
2022/08/31 07:12:23;;;;;;;0.60;0.30;;;;;;;;;;5083844;28;20184;-56
2022/08/31 07:14:49;;;;;;;0.38;0.38;;;;;;;;;;5079306;28;20052;-59
2022/08/31 07:17:15;;;;;;;0.50;0.30;;;;;;;;;;5086142;28;20150;-55
2022/08/31 07:19:41;;;;;;;0.30;0.20;;;;;;;;;;5086046;28;20123;-56
2022/08/31 07:22:08;;;;;;;0.30;0.30;;;;;;;;;;5082210;28;20119;-54
2022/08/31 07:24:35;;;;;;;0.52;0.30;;;;;;;;;;5077441;28;20044;-54
2022/08/31 07:27:09;;;;;;;0.73;0.28;;;;;;;;;;5066011;28;20131;-56
2022/08/31 07:29:38;;;;;;;;;;;;;;;;;;5076940;28;20834;-53
2022/08/31 07:32:04;;;;;;;;;;;;;;;;;;5074695;28;19949;-54
2022/08/31 07:34:32;;;;;;;;;;;;;;;;;;5076012;28;20611;-55
2022/08/31 07:42:29;;;;;;;0.30;0.30;;;;;;;;;;5086513;28;20356;-53
2022/08/31 07:44:56;;;;;;;0.30;0.28;;;;;;;;;;5085708;28;19932;-54
2022/08/31 07:47:24;;;;;;;1.20;0.50;;;;;;;;;;5084726;28;20482;-56
2022/08/31 07:49:51;;;;;;;0.38;0.30;;;;;;;;;;5083760;28;20055;-56
2022/08/31 07:52:22;;;;;;;0.80;0.35;;;;;;;;;;5066200;28;20056;-58
2022/08/31 07:54:53;;;;;;;0.20;0.20;;;;;;;;;;5065226;28;20062;-57
2022/08/31 07:57:20;;;;;;;0.77;0.20;;;;;;;;;;5082196;28;20043;-60
2022/08/31 07:59:46;;;;;;;0.20;0.10;;;;;;;;;;5085782;28;20502;-54
2022/08/31 08:02:14;;;;;;;0.30;0.20;;;;;;;;;;5066757;28;20040;-52
2022/08/31 08:04:41;;;;;;;0.20;0.20;;;;;;;;;;5072257;28;20160;-57
2022/08/31 08:07:08;;;;;;;0.20;0.17;;;;;;;;;;5084638;28;20052;-56
2022/08/31 08:09:34;;;;;;;0.45;0.30;;;;;;;;;;5084396;28;20036;-56
2022/08/31 08:12:05;;;;;;;0.40;0.17;;;;;;;;;;5085964;28;20097;-57
2022/08/31 08:14:35;;;;;;;0.20;0.20;;;;;;;;;;5085975;28;20553;-54
2022/08/31 08:17:01;;;;;;;0.82;0.40;;;;;;;;;;5085249;28;20036;-57
2022/08/31 08:19:28;;;;;;;0.30;0.30;;;;;;;;;;5086371;28;20055;-57
2022/08/31 08:21:54;;;;;;;0.45;0.30;;;;;;;;;;5085621;28;20402;-54
2022/08/31 08:24:20;;;;;;;0.28;0.28;;;;;;;;;;5085010;28;20136;-57
2022/08/31 08:26:48;;;;;;;0.20;0.20;;;;;;;;;;5086992;28;20040;-56
2022/08/31 08:29:14;;;;;;;0.52;0.20;;;;;;;;;;5088745;28;20448;-57
2022/08/31 08:31:41;;;;;;;0.25;0.15;;;;;;;;;;5089967;28;20047;-54
2022/08/31 08:34:08;;;;;;;1.15;0.17;;;;;;;;;;5089332;28;20061;-55
2022/08/31 08:36:35;;;;;;;0.52;0.30;;;;;;;;;;5088843;28;20645;-56
2022/08/31 08:39:03;;;;;;;0.25;0.20;;;;;;;;;;5071256;28;20392;-55
2022/08/31 08:41:31;;;;;;;0.28;0.28;;;;;;;;;;5089733;28;20101;-57
2022/08/31 08:43:59;;;;;;;0.57;0.40;;;;;;;;;;5089040;28;20068;-55
2022/08/31 08:46:42;;;;;;;0.22;0.20;;;;;;;;;;5089790;28;20558;-58
2022/08/31 08:49:32;;;;;;;0.30;0.30;;;;;;;;;;5089237;28;20177;-57
2022/08/31 08:52:04;;;;;;;0.73;0.50;;;;;;;;;;5041872;28;20055;-54
2022/08/31 08:54:35;;;;;;;0.73;0.65;;;;;;;;;;5071441;28;20548;-55
2022/08/31 08:57:03;;;;;;;1.33;0.40;;;;;;;;;;5089551;28;20046;-55
2022/08/31 08:59:29;;;;;;;0.22;0.22;;;;;;;;;;5088947;28;20769;-56
2022/08/31 09:02:00;;;;;;;0.98;0.32;;;;;;;;;;5089288;28;20065;-58
2022/08/31 09:04:52;;;;;;;0.73;0.40;;;;;;;;;;5088657;28;20519;-54
2022/08/31 09:07:21;;;;;;;0.55;0.22;;;;;;;;;;5089788;28;20296;-59
2022/08/31 09:09:47;;;;;;;0.50;0.40;;;;;;;;;;5089513;28;20560;-57
2022/08/31 09:12:30;;;;;;;0.40;0.20;;;;;;;;;;5088552;28;20073;-55
2022/08/31 09:15:03;;;;;;;0.10;0.10;;;;;;;;;;5088817;28;20104;-56
2022/08/31 09:17:29;;;;;;;0.47;0.30;;;;;;;;;;5089520;28;20040;-54
2022/08/31 09:20:02;;;;;;;0.60;0.40;;;;;;;;;;5088282;28;20056;-58
2022/08/31 09:22:30;;;;;;;1.67;0.30;;;;;;;;;;5089263;28;20050;-58
2022/08/31 09:24:58;;;;;;;0.20;0.20;;;;;;;;;;5089356;28;20054;-58
2022/08/31 09:27:56;;;;;;;0.22;0.10;;;;;;;;;;5088223;28;20075;-60
2022/08/31 09:30:52;;;;;;;1.60;0.20;;;;;;;;;;5033381;28;20052;-55
2022/08/31 09:33:23;;;;;;;0.77;0.30;;;;;;;;;;5066904;28;20081;-56
2022/08/31 09:35:54;;;;;;;;;;;;;;;;;;5088938;28;20090;-55
2022/08/31 09:38:38;;;;;;;0.20;0.20;;;;;;;;;;5088064;28;19963;-57
2022/08/31 09:41:19;;;;;;;0.57;0.40;;;;;;;;;;5087767;28;20145;-59
2022/08/31 09:43:46;;;;;;;0.30;0.30;;;;;;;;;;5088830;28;20669;-60
2022/08/31 09:46:20;;;;;;;0.52;0.30;;;;;;;;;;5088572;28;20056;-55
2022/08/31 09:48:50;;;;;;;0.20;0.20;;;;;;;;;;5087725;28;20434;-61
2022/08/31 09:51:21;;;;;;;0.25;0.20;;;;;;;;;;5088669;28;20403;-54
2022/08/31 09:56:47;;;;;;;0.65;0.40;;;;;;;;;;5088584;28;20082;-55
2022/08/31 09:59:28;;;;;;;0.20;0.20;;;;;;;;;;5088745;28;20402;-57
2022/08/31 10:01:54;;;;;;;1.00;0.30;;;;;;;;;;5087458;28;20042;-56
2022/08/31 10:04:24;;;;;;;0.20;0.20;;;;;;;;;;5088099;28;20147;-54
2022/08/31 10:06:50;;;;;;;0.25;0.25;;;;;;;;;;5087904;28;20456;-58
2022/08/31 10:09:27;;;;;;;0.70;0.30;;;;;;;;;;5087706;28;20123;-53
2022/08/31 10:11:56;;;;;;;0.22;0.22;;;;;;;;;;5087688;28;20083;-54
2022/08/31 10:14:22;;;;;;;0.40;0.30;;;;;;;;;;5088207;28;20051;-55
2022/08/31 10:17:09;;;;;;;0.50;0.20;;;;;;;;;;5087261;28;20036;-55
2022/08/31 10:19:50;;;;;;;0.40;0.32;;;;;;;;;;5087889;28;20666;-57
2022/08/31 10:22:26;;;;;;;0.13;0.10;;;;;;;;;;5087566;28;20082;-55
2022/08/31 10:25:03;;;;;;;0.10;0.10;;;;;;;;;;5087621;28;20047;-55
2022/08/31 10:27:37;;;;;;;0.25;0.25;;;;;;;;;;5087919;28;20502;-58
2022/08/31 10:30:22;;;;;;;0.20;0.20;;;;;;;;;;5087032;28;20433;-60
2022/08/31 10:32:57;;;;;;;0.35;0.35;;;;;;;;;;5087290;28;20137;-57
2022/08/31 10:35:27;;;;;;;0.73;0.30;;;;;;;;;;5087472;28;20054;-54
2022/08/31 10:38:14;;;;;;;0.28;0.20;;;;;;;;;;5086375;28;20058;-52
2022/08/31 10:40:50;;;;;;;0.30;0.30;;;;;;;;;;5087712;28;20091;-56
2022/08/31 10:43:20;;;;;;;0.52;0.22;;;;;;;;;;5087070;28;20090;-55
2022/08/31 10:45:48;;;;;;;0.85;0.22;;;;;;;;;;5087414;28;20052;-57
2022/08/31 10:48:18;;;;;;;0.55;0.30;;;;;;;;;;5087587;28;20261;-54
2022/08/31 10:51:04;;;;;;;1.10;0.30;;;;;;;;;;5086697;28;20052;-55
2022/08/31 10:53:41;;;;;;;1.25;0.40;;;;;;;;;;5087209;28;20075;-57
2022/08/31 10:56:13;;;;;;;0.30;0.20;;;;;;;;;;5086905;28;20097;-57
2022/08/31 10:58:39;;;;;;;0.30;0.20;;;;;;;;;;5086713;28;20048;-55
2022/08/31 11:01:11;;;;;;;0.30;0.30;;;;;;;;;;5086844;28;20132;-58
2022/08/31 11:03:55;;;;;;;0.50;0.32;;;;;;;;;;5069127;28;20463;-54
2022/08/31 11:06:24;;;;;;;4.82;0.30;;;;;;;;;;5087049;28;20047;-57
2022/08/31 11:09:08;;;;;;;0.40;0.40;;;;;;;;;;5086748;28;20044;-56
2022/08/31 11:11:43;;;;;;;0.30;0.20;;;;;;;;;;5086092;28;20051;-54
2022/08/31 11:14:13;;;;;;;0.63;0.38;;;;;;;;;;5086616;28;20048;-56
2022/08/31 11:16:58;;;;;;;0.50;0.28;;;;;;;;;;5086927;28;20076;-55
2022/08/31 11:19:40;;;;;;;0.65;0.40;;;;;;;;;;5076897;28;20048;-55
2022/08/31 11:22:35;;;;;;;0.60;0.38;;;;;;;;;;5082502;28;20127;-57
2022/08/31 11:25:23;;;;;;;0.40;0.30;;;;;;;;;;5077579;28;20533;-53
2022/08/31 11:27:58;;;;;;;0.30;0.30;;;;;;;;;;5078673;28;20108;-59
2022/08/31 11:30:31;;;;;;;0.38;0.38;;;;;;;;;;5078649;28;20074;-57
2022/08/31 11:33:06;;;;;;;0.98;0.45;;;;;;;;;;5074509;28;20073;-55
2022/08/31 11:36:04;;;;;;;0.52;0.30;;;;;;;;;;5078370;28;20044;-56
2022/08/31 11:38:39;;;;;;;0.25;0.20;;;;;;;;;;5070586;28;20120;-58
2022/08/31 11:41:09;;;;;;;0.20;0.20;;;;;;;;;;5074203;28;20119;-58
2022/08/31 11:43:35;;;;;;;0.38;0.20;;;;;;;;;;5069095;28;20250;-60
2022/08/31 11:46:27;;;;;;;0.65;0.30;;;;;;;;;;5068275;28;20082;-58
2022/08/31 11:48:53;;;;;;;0.57;0.25;;;;;;;;;;5054711;28;20052;-55
2022/08/31 11:51:33;;;;;;;0.82;0.40;;;;;;;;;;5074651;28;20044;-60
2022/08/31 11:54:00;;;;;;;0.30;0.20;;;;;;;;;;5084963;28;20048;-59
2022/08/31 11:56:40;;;;;;;0.30;0.30;;;;;;;;;;5086135;28;20094;-58
2022/08/31 11:59:26;;;;;;;0.13;0.13;;;;;;;;;;5085740;28;20506;-55
2022/08/31 12:01:55;;;;;;;0.13;0.13;;;;;;;;;;5084655;28;20217;-55
2022/08/31 12:04:40;;;;;;;1.25;0.30;;;;;;;;;;5086374;28;20114;-55
2022/08/31 12:07:12;;;;;;;0.73;0.22;;;;;;;;;;5085876;28;20147;-55
2022/08/31 12:09:38;;;;;;;;;;;;;;;;;;5086567;28;20430;-55
2022/08/31 12:12:13;;;;;;;0.50;0.20;;;;;;;;;;5085516;28;19920;-56
2022/08/31 12:15:06;;;;;;;0.77;0.40;;;;;;;;;;5085134;28;20052;-56
2022/08/31 12:17:55;;;;;;;0.50;0.35;;;;;;;;;;5078519;28;20052;-57
2022/08/31 12:23:38;;;;;;;0.25;0.25;;;;;;;;;;5068661;28;20053;-57
2022/08/31 12:26:16;;;;;;;0.60;0.22;;;;;;;;;;5065394;28;20068;-54
2022/08/31 12:28:51;;;;;;;0.80;0.47;;;;;;;;;;5065451;28;20057;-54
2022/08/31 12:31:17;;;;;;;0.52;0.40;;;;;;;;;;5065910;28;20083;-54
2022/08/31 12:33:54;;;;;;;0.38;0.32;;;;;;;;;;5067507;28;20128;-57
2022/08/31 12:36:25;;;;;;;0.30;0.30;;;;;;;;;;5073878;28;20127;-55
2022/08/31 12:39:09;;;;;;;1.23;0.43;;;;;;;;;;5070324;28;20044;-58
2022/08/31 12:41:51;;;;;;;0.40;0.40;;;;;;;;;;5069894;28;20055;-59
2022/08/31 12:44:21;;;;;;;0.30;0.20;;;;;;;;;;5068910;28;20044;-57
2022/08/31 12:46:51;;;;;;;0.40;0.20;;;;;;;;;;5079542;28;20059;-54
2022/08/31 12:49:24;;;;;;;0.43;0.40;;;;;;;;;;5078164;28;19924;-54
2022/08/31 12:51:54;;;;;;;1.17;0.32;;;;;;;;;;5065354;28;20623;-55
2022/08/31 12:54:42;;;;;;;1.05;0.43;;;;;;;;;;5065197;28;20179;-55
2022/08/31 12:57:14;;;;;;;0.60;0.52;;;;;;;;;;5079496;28;20044;-56
2022/08/31 12:59:40;;;;;;;1.70;0.60;;;;;;;;;;5084290;28;20054;-52
2022/08/31 13:02:10;;;;;;;0.47;0.43;;;;;;;;;;5085116;28;20131;-56
2022/08/31 13:04:36;;;;;;;0.98;0.40;;;;;;;;;;5069977;28;20053;-56
2022/08/31 13:07:20;;;;;;;1.35;0.52;;;;;;;;;;5065181;28;20040;-57
2022/08/31 13:09:47;;;;;;;1.13;0.50;;;;;;;;;;5072519;28;20082;-58
2022/08/31 13:12:21;;;;;;;0.40;0.40;;;;;;;;;;5064999;28;20087;-56
2022/08/31 13:14:47;;;;;;;2.03;0.68;;;;;;;;;;5082800;28;20570;-57
2022/08/31 13:17:16;;;;;;;0.82;0.35;;;;;;;;;;5089095;28;20123;-54
2022/08/31 13:19:47;;;;;;;2.08;0.50;;;;;;;;;;5087742;28;20554;-58
2022/08/31 13:22:15;;;;;;;0.73;0.30;;;;;;;;;;5087680;28;20050;-56
2022/08/31 13:24:43;;;;;;;2.70;0.50;;;;;;;;;;5076989;28;20402;-54
2022/08/31 13:27:22;;;;;;;2.60;0.77;;;;;;;;;;5068136;28;20723;-55
2022/08/31 13:29:49;;;;;;;1.02;0.50;;;;;;;;;;5068632;28;20055;-54
2022/08/31 13:32:31;;;;;;;1.13;0.50;;;;;;;;;;5068227;28;20051;-55
2022/08/31 13:35:00;;;;;;;1.17;0.52;;;;;;;;;;5068220;28;20067;-56
2022/08/31 13:37:31;;;;;;;1.50;0.38;;;;;;;;;;5068386;28;20427;-56
2022/08/31 13:40:03;;;;;;;0.47;0.38;;;;;;;;;;5074732;28;20407;-57
2022/08/31 13:42:30;;;;;;;;;;;;;;;;;;5069238;28;20045;-54
2022/08/31 13:45:08;;;;;;;0.50;0.50;;;;;;;;;;5068032;28;19924;-54
2022/08/31 13:47:35;;;;;;;0.50;0.30;;;;;;;;;;5078885;28;20052;-54
2022/08/31 13:50:12;;;;;;;0.50;0.40;;;;;;;;;;5070294;28;20052;-57
2022/08/31 13:52:39;;;;;;;0.68;0.47;;;;;;;;;;5088276;28;20267;-57
2022/08/31 13:55:06;;;;;;;1.33;0.50;;;;;;;;;;5086760;28;20060;-54
2022/08/31 13:57:34;;;;;;;0.52;0.40;;;;;;;;;;5079752;28;20564;-54
2022/08/31 14:00:19;;;;;;;2.15;0.35;;;;;;;;;;5078945;28;20044;-56
2022/08/31 14:02:45;;;;;;;0.68;0.52;;;;;;;;;;5074285;28;20411;-55
2022/08/31 14:05:26;;;;;;;1.38;0.63;;;;;;;;;;5081462;28;20395;-57
2022/08/31 14:07:54;;;;;;;0.50;0.50;;;;;;;;;;5084165;28;20055;-57
2022/08/31 14:10:35;;;;;;;0.65;0.40;;;;;;;;;;5082476;28;20511;-54
2022/08/31 14:13:08;;;;;;;0.60;0.40;;;;;;;;;;5076260;28;20384;-56
2022/08/31 14:15:39;;;;;;;3.15;0.35;;;;;;;;;;5074664;28;20055;-54
2022/08/31 14:18:25;;;;;;;0.40;0.33;;;;;;;;;;5068297;28;20085;-54
2022/08/31 14:21:04;;;;;;;1.02;0.52;;;;;;;;;;5065884;28;20049;-56
2022/08/31 14:23:33;;;;;;;1.52;0.35;;;;;;;;;;5067311;28;20479;-56
2022/08/31 14:26:00;;;;;;;0.60;0.38;;;;;;;;;;5068774;28;20036;-57
2022/08/31 14:28:36;;;;;;;0.40;0.40;;;;;;;;;;5077589;28;20124;-57
2022/08/31 14:31:10;;;;;;;0.90;0.50;;;;;;;;;;5079038;28;20045;-55
2022/08/31 14:33:36;;;;;;;1.38;0.30;;;;;;;;;;5068290;28;20677;-56
2022/08/31 14:36:12;;;;;;;0.47;0.32;;;;;;;;;;5070346;28;20131;-56
2022/08/31 14:38:38;;;;;;;5.20;0.50;;;;;;;;;;5073188;28;20814;-57
2022/08/31 14:41:06;;;;;;;2.15;0.45;;;;;;;;;;5074149;28;20032;-57
2022/08/31 14:43:33;;;;;;;0.45;0.32;;;;;;;;;;5073576;28;20058;-56
2022/08/31 14:45:59;;;;;;;2.03;0.40;;;;;;;;;;5068393;28;20033;-57
2022/08/31 14:48:25;;;;;;;1.20;0.50;;;;;;;;;;5073166;28;20044;-53
2022/08/31 14:50:51;;;;;;;1.00;0.22;;;;;;;;;;5072472;28;20051;-57
2022/08/31 14:53:17;;;;;;;0.70;0.30;;;;;;;;;;5069742;28;20105;-54
2022/08/31 14:55:44;;;;;;;0.30;0.30;;;;;;;;;;5069764;28;20044;-56
2022/08/31 14:58:12;;;;;;;0.70;0.30;;;;;;;;;;5065781;28;20045;-55
2022/08/31 15:00:46;;;;;;;1.73;0.40;;;;;;;;;;5066751;28;20281;-56
2022/08/31 15:03:13;;;;;;;2.33;0.82;;;;;;;;;;5079633;28;20087;-54
2022/08/31 15:05:40;;;;;;;0.70;0.32;;;;;;;;;;5075454;28;20048;-56
2022/08/31 15:08:06;;;;;;;0.82;0.60;;;;;;;;;;5068516;28;20085;-56
2022/08/31 15:10:33;;;;;;;0.60;0.40;;;;;;;;;;5073659;28;20128;-57
2022/08/31 15:13:07;;;;;;;1.08;0.57;;;;;;;;;;5065203;28;20044;-56
2022/08/31 15:15:33;;;;;;;1.00;0.40;;;;;;;;;;5065507;28;20052;-59